Portada
METAR-TAF:

METAR-TAF

Aeroports :

Txengdu, Xina

latitud: 30-40N, longitud: 104-01E, altitud: 508 m

Observació

L'informe es va fer fa 24 minuts, a les 18:00 UTC
Vent calma
Temperatura 26°C
Humitat 89%
Pressió 1006 hPa
Visibilitat: 8000 m

METAR: ZUUU 251800Z 00000MPS 8000 NSC 26/24 Q1006 NOSIG

Hora: 02:24 (18:24 UTC)

Pronòstic

L'informe es va fer fa 4 hores i 10 minuts, a les 14:14 UTC
Pronòstic vàlid del 25 a les 18 UTC al 26 a les 18 UTC
Vent 6 kt del Nord/Nord-Est
Visibilitat: 6000 m
Núvols disperses a una alçada de 5000 ft
Temporalment
l' 26 a les 14 UTC al 26 a les 18 UTC
Escasses núvols a una alçada de 3000 ft, Cumulonimbus.
Núvols disperses a una alçada de 4000 ft
xàfecs de pluja

TAF: ZUUU 251414Z 2518/2618 02003MPS 6000 SCT050 TX34/2607Z TN25/2522Z TEMPO 2614/2618 -SHRA FEW030CB SCT040

Observacions i pronòstics meteorològics de més de 4000 aeroports (METAR i TAF).

Les estacions disponibles són els punts grocs i vermells al mapa.

Posi el ratolí al punt desitjat per veure el nom de l'estació.

Feu clic per veure les observacions i els pronòstics meteorològics.

Per canviar el mapa: feu clic els botons verds amb una creu de color negre per apropar; al botó verd amb un guió per allunyar la imatge; o en les fletxes verdes per a mapes adjacents.


METAR-TAF: